Tiempo atmosférico en la estación meteorológica de Osa De La Vega, Cuenca (763 m.)



Fecha
DESCASC
Temp. máxima en grados centígrados (hora)
DESCASC
Temp. mínima en grados centígrados (hora)
DESCASC
Temp. media en grados centígrados
DESCASC
Racha de viento máxima en m/sg (hora)
DESCASC
Velocidad máxima media en intervalos de 10 minutos(hora)
DESCASC
Precipitaciones diarias en mm
DESCASC
Precipitaciones de 00:00 a 06:00 en mm
DESCASC
Precipitaciones de 06:00 a 12:00 en mm
DESCASC
Precipitaciones de 12:00 a 18:00 en mm
DESCASC
Precipitaciones de 18:00 a 24:00 en mm
DESCASC
06-07-2020 37.2 (18:30) 18 (08:00) 27.6 7.78 (15:40) 3.89 (16:50) 0 0 0 0 0
05-07-2020 36.6 (18:10) 18.7 (07:10) 27.6 6.67 (15:20) 3.61 (17:30) 0 0 0 0 0
04-07-2020 34.9 (19:20) 17.6 (07:10) 26.3 5.83 (14:30) 3.06 (14:10) 0 0 0 0 0
03-07-2020 32.9 (18:00) 14.2 (07:00) 23.6 8.06 (14:40) 4.72 (14:50) 0 0 0 0 0
02-07-2020 33 (17:30) 14.9 (00:00) 23.9 11.67 (12:30) 5.56 (12:40) 0 0 0 0 0
01-07-2020 35.7 (18:00) 16.5 (00:00) 26.1 10.83 (17:20) 5.56 (15:00) 0 0 0 0 0
30-06-2020 38.2 (17:40) 18.8 (00:00) 28.5 10.28 (19:00) 6.11 (17:50) 0 0 0 0 0
29-06-2020 37.3 (18:20) 16.5 (00:00) 26.9 8.89 (15:50) 5.28 (16:00) 0 0 0 0 0
28-06-2020 34.8 (18:10) 14.7 (00:00) 24.7 8.89 (13:30) 4.17 (15:40) 0 0 0 0 0
27-06-2020 32.6 (18:20) 11.6 (00:00) 22.1 7.5 (15:40) 3.33 (16:10) 0 0 0 0 0
26-06-2020 32 (15:50) 16.8 (00:00) 24.4 13.33 (00:10) 6.39 (00:10) 0 0 0 0 0
25-06-2020 35.8 (17:20) 17.8 (00:00) 26.8 14.44 (23:40) 7.5 (23:59) 0 0 0 0 0
24-06-2020 33.5 (18:40) 19.2 (00:00) 26.4 11.11 (16:10) 6.39 (15:50) 0 0 0 0 0
23-06-2020 36.6 (18:30) 17.5 (00:00) 27 9.44 (21:10) 5.56 (20:40) 0 0 0 0 0
22-06-2020 35.6 (18:40) 17.6 (00:00) 26.6 7.5 (09:40) 4.44 (09:50) 0 0 0 0 0
21-06-2020 34.2 (19:10) 13.2 (00:00) 23.7 7.22 (14:10) 3.89 (14:10) 0 0 0 0 0
20-06-2020 32.5 (18:50) 11.3 (00:00) 21.9 8.06 (13:30) 4.72 (17:00) 0 0 0 0 0
19-06-2020 30.4 (18:50) 15.7 (00:00) 23 7.5 (13:40) 4.72 (09:50) 0 0 0 0 0
18-06-2020 29.4 (18:20) 11.2 (00:00) 20.3 10.28 (21:40) 3.89 (15:50) 0 0 0 0 0
17-06-2020 26.4 (18:30) 9.4 (00:00) 17.9 8.33 (16:50) 4.72 (13:00) 0 0 0 0 0
16-06-2020 26.3 (18:10) 11.1 (00:00) 18.7 10 (21:30) 5.28 (21:30) 0 0 0 0 0
15-06-2020 28 (18:10) 9.5 (00:00) 18.8 10.28 (18:10) 4.72 (12:00) 0 0 0 0 0
14-06-2020 26.3 (18:10) 10.4 (00:00) 18.3 8.89 (13:20) 4.44 (16:10) 0 0 0 0 0
13-06-2020 23.8 (18:30) 8.6 (00:00) 16.2 9.17 (00:10) 5 (00:10) 0 0 0 0 0
12-06-2020 20.3 (17:40) 9.5 (00:00) 14.9 15.56 (14:10) 6.39 (23:59) 0 0 0 0 0
11-06-2020 25.5 (17:00) 11 (00:00) 18.3 11.67 (14:10) 6.67 (11:00) 0 0 0 0 0

Gráficas

Temp. máximas Temp. mínimas Temp. medias Precipitaciones Rachas de viento máximas Velocidades máximas media en intervalos de 10 minutos

Datos horarios

Fecha y hora oficial Temperatura (ºC) Velocidad del viento (km/h) Dirección del viento Racha (km/h) Dirección de racha Precipitación (mm) Presión (hPa) Tendencia (hPa) Humedad (%)
2020-07-10 23:00:00 24.9 9 Este 17 Sudeste 0 -- -- 51
2020-07-10 22:00:00 27.9 0 Calma 6 Este 0 -- -- 41
2020-07-10 21:00:00 31.2 2 Este 10 Sudeste 0 -- -- 33
2020-07-10 20:00:00 32.5 5 Sur 14 Sur 0 -- -- 28
2020-07-10 19:00:00 33.6 5 Sur 18 Sur 0 -- -- 27
2020-07-10 18:00:00 33.4 9 Sudeste 26 Sur 0 -- -- 28
2020-07-10 17:00:00 32.9 9 Sudeste 21 Sudeste 0 -- -- 28
2020-07-10 16:00:00 31.8 8 Este 24 Sur 0 -- -- 29
2020-07-10 15:00:00 31.4 10 Sudeste 19 Sudeste 0 -- -- 38
2020-07-10 14:00:00 29.6 10 Sudeste 21 Sudeste 0 -- -- 42
2020-07-10 13:00:00 27.8 12 Sudeste 22 Sudeste 0 -- -- 47
2020-07-10 12:00:00 26 8 Sudeste 22 Este 0.2 -- -- 51
2020-07-10 11:00:00 24.4 11 Este 19 Este 0 -- -- 57
2020-07-10 10:00:00 22.3 9 Sudeste 24 Este 0 -- -- 62
2020-07-10 09:00:00 18.9 4 Este 8 Este 0 -- -- 75
2020-07-10 08:00:00 16.7 4 Noroeste 7 Noroeste 0 -- -- 79
2020-07-10 07:00:00 17.7 3 Noroeste 6 Norte 0 -- -- 74
2020-07-10 06:00:00 17.6 2 Norte 6 Noroeste 0 -- -- 75
2020-07-10 05:00:00 17.5 3 Norte 7 Noroeste 0 -- -- 75
2020-07-10 04:00:00 17.5 2 Noroeste 6 Noroeste 0 -- -- 74
2020-07-10 03:00:00 17.6 0 Calma 11 Noroeste 0 -- -- 69
2020-07-10 02:00:00 17.3 5 Este 10 Sudeste 0 -- -- 68
2020-07-10 01:00:00 15.6 3 Sudeste 10 Sur 0 -- -- 77
2020-07-10 00:00:00 15.8 2 Sudeste 12 Noroeste 0 -- -- 77
2020-07-09 23:00:00 17.1 3 Noroeste 14 Norte 0 -- -- 69
2020-07-09 22:00:00 17.9 11 Nordeste 23 Norte 0 -- -- 66
2020-07-09 21:00:00 19.4 16 Nordeste 37 Norte 0 -- -- 59
2020-07-09 20:00:00 19.7 21 Norte 40 Nordeste 0 -- -- 55
2020-07-09 19:00:00 22.3 17 Nordeste 39 Sudeste 0.4 -- -- 45
2020-07-09 18:00:00 19 15 Sudeste 74 Sur 7.4 -- -- 62
2020-07-09 17:00:00 30.2 8 Nordeste 16 Norte 0 -- -- 32
2020-07-09 16:00:00 30.7 6 Sudeste 24 Sudeste 0 -- -- 32
2020-07-09 15:00:00 29.9 7 Sudeste 22 Sudeste 0 -- -- 34
2020-07-09 14:00:00 30 10 Sudeste 21 Sur 0 -- -- 35
2020-07-09 13:00:00 28.5 9 Sudeste 17 Sudeste 0 -- -- 38
2020-07-09 12:00:00 26.8 8 Sur 15 Sudeste 0 -- -- 44
2020-07-09 11:00:00 25 8 Sudeste 15 Sudeste 0 -- -- 54
2020-07-09 10:00:00 22.7 9 Este 18 Sudeste 0 -- -- 69
2020-07-09 09:00:00 20.4 5 Sudeste 10 Sudeste 0 -- -- 82
2020-07-09 08:00:00 18.3 5 Sudeste 12 Sudeste 0 -- -- 86
2020-07-09 07:00:00 18.2 3 Noroeste 23 Sudeste 0 -- -- 84
2020-07-09 06:00:00 19 15 Sudeste 23 Este 0 -- -- 83
2020-07-09 05:00:00 19.5 12 Sudeste 21 Este 0 -- -- 81
2020-07-09 04:00:00 20.1 11 Este 31 Este 0 -- -- 80
2020-07-09 03:00:00 20.3 9 Sudeste 23 Sudeste 0 -- -- 81
2020-07-09 02:00:00 20.6 10 Sudeste 33 Sudeste 0.8 -- -- 79
2020-07-09 01:00:00 21.4 13 Este 31 Este 0 -- -- 68
2020-07-09 00:00:00 22.1 16 Este 32 Este 0 -- -- 56
2020-07-08 23:00:00 22.6 8 Sudeste 28 Sudeste 0 -- -- 56
2020-07-08 22:00:00 23.9 12 Este 26 Este 0 -- -- 50
2020-07-08 21:00:00 24.9 15 Este 36 Este 0 -- -- 47
2020-07-08 20:00:00 25.1 17 Este 37 Este 0.2 -- -- 48
2020-07-08 19:00:00 24.2 22 Este 48 Este 0.2 -- -- 60
2020-07-08 18:00:00 28 23 Este 50 Este 0 -- -- 47
2020-07-08 17:00:00 29 30 Este 53 Este 0 -- -- 42
2020-07-08 16:00:00 26.7 13 Este 24 Este 0.4 -- -- 53
2020-07-08 15:00:00 28.8 12 Oeste 40 Este 0.8 -- -- 38
2020-07-08 14:00:00 32.6 21 Este 39 Este 0 -- -- 33
2020-07-08 13:00:00 30.8 22 Sudeste 35 Sudeste 0 -- -- 36
2020-07-08 12:00:00 29.8 17 Este 31 Nordeste 0 -- -- 38
2020-07-08 11:00:00 26.6 15 Este 34 Este 0 -- -- 45
2020-07-08 10:00:00 24.3 12 Este 23 Este 0 -- -- 51
2020-07-08 09:00:00 22.7 11 Sudeste 27 Sudeste 0 -- -- 55
2020-07-08 08:00:00 21.3 8 Sudeste 37 Este 0 -- -- 59
2020-07-08 07:00:00 21.4 3 Nordeste 15 Sudeste 0 -- -- 60
2020-07-08 06:00:00 20.8 2 Nordeste 8 Este 0 -- -- 61
2020-07-08 05:00:00 21 3 Sudeste 13 Sudeste 0 -- -- 60
2020-07-08 04:00:00 22 4 Sudeste 15 Sudeste 0 -- -- 59
2020-07-08 03:00:00 22.8 4 Este 14 Este 0 -- -- 58
2020-07-08 02:00:00 23.4 6 Sudeste 19 Este 0 -- -- 54
2020-07-08 01:00:00 25.5 10 Este 17 Sudeste 0 -- -- 51
2020-07-08 00:00:00 28.6 4 Norte 14 Norte 0 -- -- 24
2020-07-07 23:00:00 30.2 4 Noroeste 10 Oeste 0 -- -- 22
2020-07-07 22:00:00 32.2 3 Noroeste 9 Norte 0 -- -- 24
2020-07-07 21:00:00 36.3 6 Norte 10 Noroeste 0 -- -- 21
2020-07-07 20:00:00 37.7 5 Oeste 16 Noroeste 0 -- -- 20
2020-07-07 19:00:00 38.2 8 Sudoeste 27 Noroeste 0 -- -- 20
2020-07-07 18:00:00 38.1 9 Noroeste 25 Noroeste 0 -- -- 18
2020-07-07 17:00:00 37.4 5 Oeste 25 Sudoeste 0 -- -- 19
2020-07-07 16:00:00 37 6 Noroeste 25 Sudoeste 0 -- -- 19
2020-07-07 15:00:00 36.3 10 Oeste 27 Noroeste 0 -- -- 22
2020-07-07 14:00:00 35.1 9 Oeste 18 Sudoeste 0 -- -- 25
2020-07-07 13:00:00 34.1 4 Sudeste 17 Este 0 -- -- 30
2020-07-07 12:00:00 32.5 7 Sudeste 16 Este 0 -- -- 32
2020-07-07 11:00:00 30 5 Este 15 Este 0 -- -- 36
2020-07-07 10:00:00 27.4 6 Este 18 Sudeste 0 -- -- 39
2020-07-07 09:00:00 23.9 5 Este 10 Este 0 -- -- 48
2020-07-07 08:00:00 19.7 5 Noroeste 8 Noroeste 0 -- -- 57
2020-07-07 07:00:00 19.7 0 Calma 8 Norte 0 -- -- 54
2020-07-07 06:00:00 20.8 4 Norte 8 Nordeste 0 -- -- 50
2020-07-07 05:00:00 22.1 4 Norte 4 Norte 0 -- -- 48
2020-07-07 04:00:00 23 3 Sur 10 Este 0 -- -- 46
2020-07-07 03:00:00 24 2 Sudeste 9 Sudoeste 0 -- -- 45
2020-07-07 02:00:00 25.1 6 Sudeste 27 Este 0 -- -- 43
2020-07-07 01:00:00 25.9 12 Este 25 Este 0 -- -- 42
2020-07-07 00:00:00 25.7 5 Noroeste 9 Noroeste 0 -- -- 36
2020-07-06 23:00:00 28.5 2 Nordeste 6 Norte 0 -- -- 32
2020-07-06 22:00:00 31.3 2 Norte 7 Oeste 0 -- -- 28
2020-07-06 21:00:00 34.6 6 Noroeste 18 Noroeste 0 -- -- 24
2020-07-06 20:00:00 36.1 7 Noroeste 24 Noroeste 0 -- -- 21
2020-07-06 19:00:00 36.8 11 Noroeste 24 Norte 0 -- -- 20
2020-07-06 18:00:00 36.8 9 Noroeste 25 Noroeste 0 -- -- 21
2020-07-06 17:00:00 36.2 10 Norte 26 Noroeste 0 -- -- 20
2020-07-06 16:00:00 36.1 12 Noroeste 28 Noroeste 0 -- -- 20
2020-07-06 15:00:00 35.3 8 Oeste 20 Norte 0 -- -- 22
2020-07-06 14:00:00 34.5 5 Oeste 15 Norte 0 -- -- 25
2020-07-06 13:00:00 32.8 4 Noroeste 14 Norte 0 -- -- 27
2020-07-06 12:00:00 31.2 4 Sur 12 Nordeste 0 -- -- 34
2020-07-06 11:00:00 29.2 4 Sudeste 12 Este 0 -- -- 39
2020-07-06 10:00:00 26.2 5 Este 12 Sudeste 0 -- -- 45
2020-07-06 09:00:00 21.9 3 Noroeste 10 Norte 0 -- -- 54
2020-07-06 08:00:00 18 7 Noroeste 10 Noroeste 0 -- -- 59
2020-07-06 07:00:00 19 0 Calma 9 Sudeste 0 -- -- 55
2020-07-06 06:00:00 19.6 5 Sur 8 Este 0 -- -- 54
2020-07-06 05:00:00 20.5 3 Noroeste 12 Sur 0 -- -- 53
2020-07-06 04:00:00 21 6 Sudeste 13 Sur 0 -- -- 52
2020-07-06 03:00:00 21.7 0 Calma 11 Sudeste 0 -- -- 51
2020-07-06 02:00:00 22.8 3 Sudeste 8 Sur 0 -- -- 51
2020-07-06 01:00:00 23.2 6 Este 13 Sudeste 0 -- -- 41
2020-07-06 00:00:00 24 4 Norte 10 Noroeste 0 -- -- 30
2020-07-05 23:00:00 26.6 5 Noroeste 8 Norte 0 -- -- 29
2020-07-05 22:00:00 30.6 4 Noroeste 10 Norte 0 -- -- 26
2020-07-05 21:00:00 33.7 7 Noroeste 13 Noroeste 0 -- -- 21
2020-07-05 20:00:00 35.6 5 Oeste 22 Norte 0 -- -- 20
2020-07-05 19:00:00 36.3 6 Noroeste 18 Norte 0 -- -- 19
2020-07-05 18:00:00 36.2 4 Sur 21 Noroeste 0 -- -- 21
2020-07-05 17:00:00 35.9 5 Este 20 Norte 0 -- -- 22
2020-07-05 16:00:00 35.8 7 Este 24 Noroeste 0 -- -- 22
2020-07-05 15:00:00 34.4 7 Nordeste 17 Norte 0 -- -- 23
2020-07-05 14:00:00 33.4 8 Norte 20 Noroeste 0 -- -- 24
2020-07-05 13:00:00 32.4 4 Noroeste 19 Sudeste 0 -- -- 35
2020-07-05 12:00:00 30.8 10 Sudeste 21 Sudeste 0 -- -- 41
2020-07-05 11:00:00 28 9 Este 19 Sudeste 0 -- -- 50
2020-07-05 10:00:00 24.8 9 Este 20 Sudeste 0 -- -- 62
2020-07-05 09:00:00 21.9 12 Sudeste 20 Este 0 -- -- 74
2020-07-05 08:00:00 19 2 Sudeste 8 Este 0 -- -- 84
2020-07-05 07:00:00 18.8 4 Sudeste 10 Este 0 -- -- 83
2020-07-05 06:00:00 19.4 5 Sudeste 11 Este 0 -- -- 82
2020-07-05 05:00:00 19.9 5 Este 12 Sudeste 0 -- -- 80
2020-07-05 04:00:00 20.5 5 Este 20 Este 0 -- -- 80
2020-07-05 03:00:00 21.2 8 Este 17 Sudeste 0 -- -- 78
2020-07-05 02:00:00 22.3 4 Sudeste 20 Este 0 -- -- 73
2020-07-05 01:00:00 23.1 10 Este 21 Este 0 -- -- 68
2020-07-05 00:00:00 22.2 6 Noroeste 11 Norte 0 -- -- 30
2020-07-04 23:00:00 23.9 6 Noroeste 9 Noroeste 0 -- -- 28
2020-07-04 22:00:00 28.5 5 Norte 10 Norte 0 -- -- 24
2020-07-04 21:00:00 32.3 6 Norte 18 Nordeste 0 -- -- 20
2020-07-04 20:00:00 33.6 9 Norte 18 Norte 0 -- -- 20
2020-07-04 19:00:00 34.7 9 Norte 21 Noroeste 0 -- -- 20
2020-07-04 18:00:00 34.3 5 Sudoeste 20 Noroeste 0 -- -- 21
2020-07-04 17:00:00 33.8 8 Norte 19 Norte 0 -- -- 24
2020-07-04 16:00:00 33.2 5 Oeste 19 Noroeste 0 -- -- 24
2020-07-04 15:00:00 31.7 8 Nordeste 21 Nordeste 0 -- -- 26
2020-07-04 14:00:00 31.3 6 Sudoeste 18 Sudoeste 0 -- -- 31
2020-07-04 13:00:00 29.7 5 Noroeste 13 Sur 0 -- -- 35
2020-07-04 12:00:00 28.2 5 Nordeste 15 Nordeste 0 -- -- 46
2020-07-04 11:00:00 25.8 5 Este 14 Nordeste 0 -- -- 58
2020-07-04 10:00:00 23.4 6 Este 17 Nordeste 0 -- -- 70
2020-07-04 09:00:00 20.7 5 Este 10 Este 0 -- -- 83
2020-07-04 08:00:00 18 0 Calma 5 Noroeste 0 -- -- 88
2020-07-04 07:00:00 17.8 4 Noroeste 5 Norte 0 -- -- 84
2020-07-04 06:00:00 18.5 0 Calma 9 Sudeste 0 -- -- 85
2020-07-04 05:00:00 19.1 3 Noroeste 7 Nordeste 0 -- -- 84
2020-07-04 04:00:00 19.5 0 Calma 11 Sudeste 0 -- -- 83
2020-07-04 03:00:00 20 3 Sudeste 13 Sudeste 0 -- -- 78
2020-07-04 02:00:00 21 8 Sudeste 15 Este 0 -- -- 74
2020-07-04 01:00:00 19.9 4 Sudeste 13 Este 0 -- -- 40
2020-07-04 00:00:00 21.2 5 Noroeste 9 Norte 0 -- -- 32
2020-07-03 23:00:00 23.4 5 Norte 11 Norte 0 -- -- 30
2020-07-03 22:00:00 26.9 6 Norte 13 Oeste 0 -- -- 26
2020-07-03 21:00:00 30.5 4 Oeste 18 Oeste 0 -- -- 23
2020-07-03 20:00:00 32 5 Oeste 20 Sudoeste 0 -- -- 21
2020-07-03 19:00:00 32.8 8 Oeste 22 Sudoeste 0 -- -- 22
2020-07-03 18:00:00 32.9 12 Sur 21 Sur 0 -- -- 22
2020-07-03 17:00:00 32.1 7 Noroeste 23 Sudoeste 0 -- -- 23
2020-07-03 16:00:00 31.6 10 Sudoeste 24 Sudoeste 0 -- -- 24
2020-07-03 15:00:00 31.1 9 Sur 29 Sur 0 -- -- 25
2020-07-03 14:00:00 29.4 8 Sudoeste 25 Sudoeste 0 -- -- 29
2020-07-03 13:00:00 28.5 6 Oeste 24 Sur 0 -- -- 30
2020-07-03 12:00:00 27.8 10 Sur 17 Sur 0 -- -- 42
2020-07-03 11:00:00 25.8 10 Sur 19 Sur 0 -- -- 51
2020-07-03 10:00:00 23.1 9 Sudeste 20 Sudeste 0 -- -- 59
2020-07-03 09:00:00 19.7 9 Sudeste 16 Sudeste 0 -- -- 73
2020-07-03 08:00:00 15 3 Noroeste 6 Noroeste 0 -- -- 65
2020-07-03 07:00:00 14.2 3 Sudoeste 9 Sur 0 -- -- 60
2020-07-03 06:00:00 15.2 2 Oeste 6 Noroeste 0 -- -- 54
2020-07-03 05:00:00 16.8 2 Norte 6 Noroeste 0 -- -- 50
2020-07-03 04:00:00 18.9 3 Sur 8 Noroeste 0 -- -- 46
2020-07-03 03:00:00 20.5 4 Norte 11 Nordeste 0 -- -- 42
2020-07-03 02:00:00 22.2 5 Norte 20 Noroeste 0 -- -- 39
2020-07-03 01:00:00 23.1 6 Noroeste 13 Oeste 0 -- -- 38
2020-07-03 00:00:00 23.8 8 Noroeste 14 Noroeste 0 -- -- 37
2020-07-02 23:00:00 25.3 6 Noroeste 16 Noroeste 0 -- -- 33
2020-07-02 22:00:00 27.6 6 Noroeste 24 Oeste 0 -- -- 28
2020-07-02 21:00:00 29.8 12 Sudoeste 28 Sudoeste 0 -- -- 24
2020-07-02 20:00:00 31.4 14 Sudoeste 27 Oeste 0 -- -- 21
2020-07-02 19:00:00 32.6 12 Oeste 28 Sudoeste 0 -- -- 18
2020-07-02 18:00:00 33 13 Oeste 32 Sudoeste 0 -- -- 18
2020-07-02 17:00:00 32.7 13 Oeste 42 Sur 0 -- -- 19
2020-07-02 16:00:00 32.5 13 Oeste 37 Sudoeste 0 -- -- 19
2020-07-02 15:00:00 32.3 10 Oeste 39 Sudoeste 0 -- -- 21
2020-07-02 14:00:00 31.9 17 Sudoeste 38 Sudoeste 0 -- -- 21
2020-07-02 13:00:00 30.4 19 Sudoeste 42 Sur 0 -- -- 24
2020-07-02 12:00:00 29.4 12 Sudoeste 27 Sudoeste 0 -- -- 31
2020-07-02 11:00:00 28.2 10 Sudoeste 18 Oeste 0 -- -- 33
2020-07-02 10:00:00 25.8 7 Sur 14 Sur 0 -- -- 38
2020-07-02 09:00:00 20.4 3 Sudeste 5 Sudeste 0 -- -- 46
2020-07-02 08:00:00 15.6 0 Calma 4 Noroeste 0 -- -- 51
2020-07-02 07:00:00 15.3 0 Calma 2 Oeste 0 -- -- 50
2020-07-02 06:00:00 16 0 Calma 5 Sudeste 0 -- -- 48
2020-07-02 05:00:00 17.1 2 Noroeste 7 Sudeste 0 -- -- 44
2020-07-02 04:00:00 18.8 4 Norte 9 Norte 0 -- -- 40
2020-07-02 03:00:00 20.8 0 Calma 8 Sudeste 0 -- -- 36
2020-07-02 02:00:00 21.4 4 Sur 17 Sur 0 -- -- 34
2020-07-02 01:00:00 23 5 Norte 12 Noroeste 0 -- -- 31
2020-07-02 00:00:00 26.2 8 Noroeste 17 Oeste 0 -- -- 27
2020-07-01 23:00:00 27.9 8 Oeste 18 Oeste 0 -- -- 24
2020-07-01 22:00:00 29.3 6 Oeste 18 Sudoeste 0 -- -- 22
2020-07-01 21:00:00 32.3 9 Sudoeste 24 Sudoeste 0 -- -- 19
2020-07-01 20:00:00 33.9 10 Oeste 30 Sudoeste 0 -- -- 20
2020-07-01 19:00:00 35 14 Sudoeste 34 Sudoeste 0 -- -- 18
2020-07-01 18:00:00 35.7 12 Sudoeste 39 Sudoeste 0 -- -- 19
2020-07-01 17:00:00 35.1 13 Oeste 32 Oeste 0 -- -- 20
2020-07-01 16:00:00 34.5 13 Oeste 37 Sur 0 -- -- 22
2020-07-01 15:00:00 34 20 Sudoeste 35 Sudoeste 0 -- -- 23
2020-07-01 14:00:00 33 14 Sudoeste 36 Sudoeste 0 -- -- 28
2020-07-01 13:00:00 31.5 11 Sudoeste 33 Sudoeste 0 -- -- 29
2020-07-01 12:00:00 29.9 12 Sudoeste 27 Sudoeste 0 -- -- 34
2020-07-01 11:00:00 28.2 9 Sudoeste 21 Sur 0 -- -- 35
2020-07-01 10:00:00 26.1 10 Sur 18 Sur 0 -- -- 45
2020-07-01 09:00:00 21.4 8 Sur 12 Sur 0 -- -- 52
2020-07-01 08:00:00 16.8 2 Noroeste 6 Noroeste 0 -- -- 54
2020-07-01 07:00:00 16.7 0 Calma 4 Este 0 -- -- 51
2020-07-01 06:00:00 17.8 0 Calma 4 Norte 0 -- -- 46
2020-07-01 05:00:00 18.6 3 Norte 6 Norte 0 -- -- 45
2020-07-01 04:00:00 19.2 3 Norte 7 Noroeste 0 -- -- 42
2020-07-01 03:00:00 21.3 2 Norte 4 Sudeste 0 -- -- 38
2020-07-01 02:00:00 22.1 2 Noroeste 6 Este 0 -- -- 34
2020-07-01 01:00:00 23 4 Este 15 Sudeste 0 -- -- 32
2020-07-01 00:00:00 26.3 3 Norte 9 Sudoeste 0 -- -- 26
2020-06-30 23:00:00 28.7 3 Sudoeste 10 Oeste 0 -- -- 23
2020-06-30 22:00:00 31.3 5 Sudoeste 15 Sur 0 -- -- 20
2020-06-30 21:00:00 34.4 10 Sur 25 Sur 0 -- -- 20
2020-06-30 20:00:00 36.9 14 Sudeste 28 Sur 0 -- -- 23
2020-06-30 19:00:00 37.5 17 Sudeste 37 Sur 0 -- -- 21
2020-06-30 18:00:00 37.7 13 Sur 34 Sudoeste 0 -- -- 23
2020-06-30 17:00:00 36.9 6 Sur 31 Sur 0 -- -- 23
2020-06-30 16:00:00 36.5 9 Sudoeste 36 Sur 0 -- -- 23
2020-06-30 15:00:00 36.1 16 Sur 32 Sur 0 -- -- 23
2020-06-30 14:00:00 35.5 16 Sur 31 Sudeste 0 -- -- 27
2020-06-30 13:00:00 33.7 15 Sudeste 29 Sudeste 0 -- -- 31
2020-06-30 12:00:00 32 12 Sudeste 22 Sudeste 0 -- -- 31
2020-06-30 11:00:00 29.2 9 Sudeste 17 Sudeste 0 -- -- 36
2020-06-30 10:00:00 25.8 8 Este 17 Este 0 -- -- 45
2020-06-30 09:00:00 22.1 9 Sudeste 15 Sudeste 0 -- -- 55
2020-06-30 08:00:00 19 2 Sudeste 6 Sudeste 0 -- -- 66
2020-06-30 07:00:00 19.1 2 Sudeste 9 Sudeste 0 -- -- 66
2020-06-30 06:00:00 19.8 3 Este 13 Este 0 -- -- 65
2020-06-30 05:00:00 20.7 5 Sudeste 12 Este 0 -- -- 62
2020-06-30 04:00:00 22 2 Este 10 Este 0 -- -- 56
2020-06-30 03:00:00 23 4 Sudeste 13 Este 0 -- -- 51
2020-06-30 02:00:00 24 6 Sudeste 18 Sudeste 0 -- -- 45
2020-06-30 01:00:00 25.3 4 Este 8 Este 0 -- -- 46
2020-06-30 00:00:00 25.8 2 Nordeste 11 Este 0 -- -- 41
2020-06-29 23:00:00 27.1 0 Calma 9 Este 0 -- -- 33
2020-06-29 22:00:00 31.5 3 Noroeste 5 Noroeste 0 -- -- 29
2020-06-29 21:00:00 34.7 3 Sudoeste 16 Sur 0 -- -- 25
2020-06-29 20:00:00 35.9 11 Sur 17 Sudoeste 0 -- -- 22
2020-06-29 19:00:00 36.9 8 Oeste 23 Sur 0 -- -- 22
2020-06-29 18:00:00 37.2 10 Sur 29 Sudoeste 0 -- -- 22
2020-06-29 17:00:00 36.4 9 Sudoeste 26 Sudoeste 0 -- -- 23
2020-06-29 16:00:00 36 19 Sur 32 Sur 0 -- -- 24
2020-06-29 15:00:00 34.6 8 Oeste 22 Sur 0 -- -- 26
2020-06-29 14:00:00 34.1 14 Sudoeste 30 Sudoeste 0 -- -- 28
2020-06-29 13:00:00 32.7 6 Sudoeste 21 Sur 0 -- -- 30
2020-06-29 12:00:00 31.2 6 Sur 14 Sur 0 -- -- 34
2020-06-29 11:00:00 28.4 5 Sur 14 Sur 0 -- -- 43
2020-06-29 10:00:00 25.8 8 Sur 14 Sur 0 -- -- 49
2020-06-29 09:00:00 21.5 3 Sudeste 6 Sur 0 -- -- 63
2020-06-29 08:00:00 17.1 0 Calma 5 Noroeste 0 -- -- 68
2020-06-29 07:00:00 16.5 4 Norte 8 Noroeste 0 -- -- 66
2020-06-29 06:00:00 17.1 3 Norte 5 Noroeste 0 -- -- 60
2020-06-29 05:00:00 18.2 0 Calma 6 Noroeste 0 -- -- 55
2020-06-29 04:00:00 18.6 4 Noroeste 6 Noroeste 0 -- -- 52
2020-06-29 03:00:00 20.1 3 Norte 7 Norte 0 -- -- 49
2020-06-29 02:00:00 20.6 3 Noroeste 8 Sudeste 0 -- -- 48
2020-06-29 01:00:00 22.5 6 Norte 13 Norte 0 -- -- 43
2020-06-29 00:00:00 24.1 7 Norte 16 Noroeste 0 -- -- 40
2020-06-28 23:00:00 25.8 2 Norte 9 Noroeste 0 -- -- 38
2020-06-28 22:00:00 29.5 0 Calma 4 Noroeste 0 -- -- 34
2020-06-28 21:00:00 32.4 4 Sudoeste 9 Sur 0 -- -- 28
2020-06-28 20:00:00 33.9 5 Oeste 27 Noroeste 0 -- -- 26
2020-06-28 19:00:00 34.3 7 Oeste 23 Oeste 0 -- -- 24
2020-06-28 18:00:00 34.5 5 Oeste 23 Sudoeste 0 -- -- 26
2020-06-28 17:00:00 33.9 13 Sudoeste 28 Sudoeste 0 -- -- 25
2020-06-28 16:00:00 33.1 7 Oeste 30 Sudoeste 0 -- -- 29
2020-06-28 15:00:00 33.1 14 Sur 28 Sur 0 -- -- 29
2020-06-28 14:00:00 32.1 13 Sur 32 Sur 0 -- -- 31
2020-06-28 13:00:00 30.8 12 Sudoeste 30 Sudoeste 0 -- -- 34
2020-06-28 12:00:00 29.6 8 Sur 21 Sur 0 -- -- 37
2020-06-28 11:00:00 27.5 8 Sur 14 Sudeste 0 -- -- 42
2020-06-28 10:00:00 24.6 8 Sur 15 Sur 0 -- -- 48
2020-06-28 09:00:00 20.3 3 Sudeste 6 Sudeste 0 -- -- 60
2020-06-28 08:00:00 15.8 2 Norte 6 Noroeste 0 -- -- 67
2020-06-28 07:00:00 14.7 4 Noroeste 6 Noroeste 0 -- -- 66
2020-06-28 06:00:00 15.8 0 Calma 5 Noroeste 0 -- -- 63
2020-06-28 05:00:00 16.8 0 Calma 4 Sudoeste 0 -- -- 60
2020-06-28 04:00:00 16.9 0 Calma 9 Este 0 -- -- 59
2020-06-28 03:00:00 18.2 0 Calma 5 Noroeste 0 -- -- 52
2020-06-28 02:00:00 19.3 4 Noroeste 8 Noroeste 0 -- -- 48
2020-06-28 01:00:00 21.8 4 Norte 8 Norte 0 -- -- 43
2020-06-28 00:00:00 23.2 4 Norte 7 Norte 0 -- -- 40
2020-06-27 23:00:00 24.9 4 Norte 9 Noroeste 0 -- -- 37
2020-06-27 22:00:00 27.6 5 Norte 8 Noroeste 0 -- -- 33
2020-06-27 21:00:00 30.8 5 Noroeste 13 Noroeste 0 -- -- 28
2020-06-27 20:00:00 32.1 5 Oeste 19 Sudoeste 0 -- -- 26
2020-06-27 19:00:00 32.6 6 Oeste 20 Sudoeste 0 -- -- 25
2020-06-27 18:00:00 32.2 11 Sudoeste 23 Sudoeste 0 -- -- 26
2020-06-27 17:00:00 31.7 9 Sudoeste 27 Norte 0 -- -- 27
2020-06-27 16:00:00 30.3 12 Sudoeste 27 Sudoeste 0 -- -- 29
2020-06-27 15:00:00 29.8 8 Oeste 20 Oeste 0 -- -- 30
2020-06-27 14:00:00 28.2 6 Oeste 20 Sur 0 -- -- 32
2020-06-27 13:00:00 27 10 Sudoeste 22 Sudoeste 0 -- -- 32
2020-06-27 12:00:00 25.4 7 Sudoeste 16 Oeste 0 -- -- 38
2020-06-27 11:00:00 22.6 4 Noroeste 12 Noroeste 0 -- -- 43
2020-06-27 10:00:00 17.8 2 Sudeste 4 Este 0 -- -- 44
2020-06-27 09:00:00 14.4 0 Calma 3 Sur 0 -- -- 50
2020-06-27 08:00:00 12.4 2 Norte 6 Norte 0 -- -- 54
2020-06-27 07:00:00 11.8 3 Noroeste 4 Noroeste 0 -- -- 56
2020-06-27 06:00:00 12.8 0 Calma 4 Noroeste 0 -- -- 52
2020-06-27 05:00:00 13.5 3 Noroeste 5 Noroeste 0 -- -- 49
2020-06-27 04:00:00 14.7 0 Calma 7 Sur 0 -- -- 45
2020-06-27 03:00:00 16 3 Este 8 Sudeste 0 -- -- 41
2020-06-27 02:00:00 18.6 3 Norte 7 Norte 0 -- -- 34
2020-06-27 01:00:00 20.3 3 Norte 12 Noroeste 0 -- -- 31
2020-06-27 00:00:00 23.1 4 Noroeste 18 Sudoeste 0 -- -- 26
2020-06-26 23:00:00 24.6 6 Oeste 18 Oeste 0 -- -- 26
2020-06-26 22:00:00 26.1 7 Noroeste 22 Oeste 0 -- -- 26
2020-06-26 21:00:00 28.1 9 Oeste 22 Oeste 0 -- -- 29
2020-06-26 20:00:00 30.3 10 Oeste 39 Sur 0 -- -- 26
2020-06-26 19:00:00 30.6 12 Sudoeste 29 Sudoeste 0 -- -- 27
2020-06-26 18:00:00 30.7 14 Sudoeste 30 Sudoeste 0 -- -- 29
2020-06-26 17:00:00 31.4 20 Sudoeste 36 Sudoeste 0 -- -- 28
2020-06-26 16:00:00 31.9 17 Sur 32 Sur 0 -- -- 27
2020-06-26 15:00:00 30.7 13 Sudoeste 31 Sur 0 -- -- 32
2020-06-26 14:00:00 29.2 12 Sudoeste 29 Sur 0 -- -- 38
2020-06-26 13:00:00 29.9 14 Sur 30 Sur 0 -- -- 38
2020-06-26 12:00:00 28.1 9 Sudeste 18 Sur 0 -- -- 42
2020-06-26 11:00:00 26.2 9 Sudeste 18 Sudeste 0 -- -- 44
2020-06-26 10:00:00 23.9 11 Sudeste 17 Sudeste 0 -- -- 50
2020-06-26 09:00:00 20.2 7 Sudeste 12 Sudeste 0 -- -- 60
2020-06-26 08:00:00 17.3 0 Calma 3 Este 0 -- -- 64
2020-06-26 07:00:00 17 0 Calma 7 Sudeste 0 -- -- 60
2020-06-26 06:00:00 18 6 Sudeste 12 Este 0 -- -- 58
2020-06-26 05:00:00 18.9 5 Sudeste 19 Sudeste 0 -- -- 53
2020-06-26 04:00:00 20 10 Sudeste 25 Sudeste 0 -- -- 49
2020-06-26 03:00:00 20.8 15 Sudeste 31 Sudeste 0 -- -- 47
2020-06-26 02:00:00 21.6 18 Sudeste 36 Sudeste 0 -- -- 45
2020-06-26 01:00:00 22.8 19 Sudeste 48 Sudeste 0 -- -- 45
2020-06-26 00:00:00 25.4 27 Sudeste 52 Sudeste 0 -- -- 35
2020-06-25 23:00:00 26.3 21 Sudeste 33 Sudeste 0 -- -- 28
2020-06-25 22:00:00 27.7 18 Sudeste 33 Sudeste 0 -- -- 28
2020-06-25 21:00:00 30.3 16 Sudeste 33 Sudeste 0 -- -- 27
2020-06-25 20:00:00 33.3 21 Sudeste 34 Sudeste 0 -- -- 24
2020-06-25 19:00:00 35.1 21 Sur 39 Sudeste 0 -- -- 22
2020-06-25 18:00:00 34.8 18 Sur 31 Sur 0 -- -- 23
2020-06-25 17:00:00 35.3 8 Sur 30 Sur 0 -- -- 23
2020-06-25 16:00:00 34.9 18 Sudeste 34 Sudeste 0 -- -- 22
2020-06-25 15:00:00 34.2 14 Sudeste 30 Sudeste 0 -- -- 25
2020-06-25 14:00:00 33 12 Sudeste 33 Sur 0 -- -- 27
2020-06-25 13:00:00 31.9 12 Sudeste 27 Sudeste 0 -- -- 28
2020-06-25 12:00:00 30.3 13 Sudeste 26 Sur 0 -- -- 31
2020-06-25 11:00:00 27.8 15 Sudeste 27 Sudeste 0 -- -- 36
2020-06-25 10:00:00 24.6 15 Este 27 Este 0 -- -- 44
2020-06-25 09:00:00 20.5 6 Sudeste 12 Sudeste 0 -- -- 60
2020-06-25 08:00:00 18.3 7 Sudeste 12 Sudeste 0 -- -- 65
2020-06-25 07:00:00 17.9 6 Este 14 Este 0 -- -- 69
2020-06-25 06:00:00 18.3 9 Sudeste 22 Este 0 -- -- 70
2020-06-25 05:00:00 18.5 8 Sudeste 15 Sudeste 0 -- -- 69
2020-06-25 04:00:00 19.2 10 Sudeste 27 Este 0 -- -- 67
2020-06-25 03:00:00 20.1 7 Sudeste 16 Sudeste 0 -- -- 66
2020-06-25 02:00:00 21.2 8 Este 15 Sudeste 0 -- -- 62
2020-06-25 01:00:00 22.2 8 Este 21 Este 0 -- -- 62
2020-06-25 00:00:00 23.5 10 Este 17 Sudeste 0 -- -- 57
2020-06-24 23:00:00 23.9 5 Este 13 Este 0 -- -- 43
2020-06-24 22:00:00 25.5 3 Sudeste 12 Este 0 -- -- 40
2020-06-24 21:00:00 29.2 8 Este 19 Sudeste 0 -- -- 34
2020-06-24 20:00:00 30.6 11 Este 28 Sudeste 0 -- -- 31
2020-06-24 19:00:00 33.1 14 Sudeste 28 Este 0 -- -- 26
2020-06-24 18:00:00 31.9 15 Sudeste 26 Este 0 -- -- 27
2020-06-24 17:00:00 32.5 16 Este 40 Este 0 -- -- 29
2020-06-24 16:00:00 29.4 19 Este 40 Nordeste 0 -- -- 38
2020-06-24 15:00:00 27.8 13 Nordeste 24 Nordeste 0 -- -- 39
2020-06-24 14:00:00 27.1 7 Sur 17 Este 0 -- -- 40
2020-06-24 13:00:00 26.5 8 Este 16 Nordeste 0 -- -- 43
2020-06-24 12:00:00 25.3 3 Sudeste 13 Sudeste 0 -- -- 44
2020-06-24 11:00:00 24 10 Sur 24 Sur 0 -- -- 48
2020-06-24 10:00:00 23.9 16 Sur 28 Sur 0 -- -- 47
2020-06-24 09:00:00 22.8 18 Sur 31 Sur 0 -- -- 50
2020-06-24 08:00:00 20 6 Sudeste 19 Este 0 -- -- 57
2020-06-24 07:00:00 19.3 5 Este 22 Nordeste 0 -- -- 60
2020-06-24 06:00:00 20.2 10 Este 29 Este 0 -- -- 59
2020-06-24 05:00:00 20.5 15 Este 34 Nordeste 0 -- -- 58
2020-06-24 04:00:00 20.2 10 Norte 25 Nordeste 0 -- -- 60
2020-06-24 03:00:00 20.4 8 Este 24 Sudeste 0 -- -- 62
2020-06-24 02:00:00 21.8 10 Este 23 Sudeste 0 -- -- 61
2020-06-24 01:00:00 22.9 9 Sudeste 19 Sudeste 0 -- -- 51
2020-06-24 00:00:00 24.3 6 Sudeste 14 Sudeste 0 -- -- 48
2020-06-23 23:00:00 26.2 9 Sudeste 21 Sudeste 0 -- -- 41
2020-06-23 22:00:00 28.5 10 Sudeste 34 Sudeste 0 -- -- 34
2020-06-23 21:00:00 31.9 19 Sudeste 32 Sudeste 0 -- -- 27
2020-06-23 20:00:00 34.6 10 Este 22 Sudeste 0 -- -- 23
2020-06-23 19:00:00 36.1 10 Sudeste 24 Sur 0 -- -- 23
2020-06-23 18:00:00 36.2 7 Sudeste 23 Sur 0 -- -- 22
2020-06-23 17:00:00 35.8 5 Norte 26 Sur 0 -- -- 22
2020-06-23 16:00:00 35.4 14 Sudeste 24 Sudeste 0 -- -- 24
2020-06-23 15:00:00 34.4 12 Sudeste 32 Este 0 -- -- 26
2020-06-23 14:00:00 33.2 13 Sudeste 29 Sudeste 0 -- -- 28
2020-06-23 13:00:00 31.4 14 Sudeste 28 Sudeste 0 -- -- 32
2020-06-23 12:00:00 28.9 15 Este 31 Este 0 -- -- 36
2020-06-23 11:00:00 26.2 18 Este 31 Este 0 -- -- 40
2020-06-23 10:00:00 23.5 16 Sudeste 30 Este 0 -- -- 46
2020-06-23 09:00:00 20.9 10 Este 24 Sudeste 0 -- -- 53
2020-06-23 08:00:00 18.6 9 Este 24 Sudeste 0 -- -- 58
2020-06-23 07:00:00 17.7 10 Sudeste 19 Sudeste 0 -- -- 64
2020-06-23 06:00:00 18 4 Sudeste 15 Sudeste 0 -- -- 64
2020-06-23 05:00:00 18.9 6 Sudeste 17 Sudeste 0 -- -- 62
2020-06-23 04:00:00 19.7 8 Sudeste 25 Este 0 -- -- 61
2020-06-23 03:00:00 20.6 8 Este 31 Este 0 -- -- 61
2020-06-23 02:00:00 21.2 9 Este 23 Este 0 -- -- 53
2020-06-23 01:00:00 22.2 3 Norte 17 Sudeste 0 -- -- 50
2020-06-23 00:00:00 23.7 5 Este 12 Este 0 -- -- 47
2020-06-22 23:00:00 25.7 4 Sudeste 20 Sudeste 0 -- -- 42
2020-06-22 22:00:00 28.5 13 Sudeste 23 Sudeste 0 -- -- 36
2020-06-22 21:00:00 33.1 2 Sudoeste 11 Sudoeste 0 -- -- 23
2020-06-22 20:00:00 34.9 4 Sudoeste 14 Sur 0 -- -- 19
2020-06-22 19:00:00 35.6 6 Sur 14 Sur 0 -- -- 20
2020-06-22 18:00:00 35 7 Nordeste 19 Sudeste 0 -- -- 21
2020-06-22 17:00:00 34.8 8 Sudeste 16 Sur 0 -- -- 23
2020-06-22 16:00:00 33.6 9 Noroeste 24 Sur 0 -- -- 23
2020-06-22 15:00:00 33.8 10 Sudeste 22 Este 0 -- -- 25
2020-06-22 14:00:00 33.1 10 Sur 26 Sudeste 0 -- -- 28
2020-06-22 13:00:00 31.4 8 Este 25 Sudeste 0 -- -- 28
2020-06-22 12:00:00 30 12 Sudeste 26 Sudeste 0 -- -- 33
2020-06-22 11:00:00 28 13 Sudeste 26 Sudeste 0 -- -- 38
2020-06-22 10:00:00 25.4 12 Este 27 Este 0 -- -- 44
2020-06-22 09:00:00 22.3 7 Este 17 Sudeste 0 -- -- 48
2020-06-22 08:00:00 19 0 Calma 12 Nordeste 0 -- -- 56
2020-06-22 07:00:00 18.1 3 Nordeste 15 Este 0 -- -- 58
2020-06-22 06:00:00 18 2 Norte 7 Nordeste 0 -- -- 60
2020-06-22 05:00:00 17.8 4 Noroeste 9 Noroeste 0 -- -- 58
2020-06-22 04:00:00 18.7 4 Noroeste 7 Oeste 0 -- -- 57
2020-06-22 03:00:00 20.5 2 Oeste 18 Este 0 -- -- 51
2020-06-22 02:00:00 21.1 6 Nordeste 15 Noroeste 0 -- -- 36
2020-06-22 01:00:00 20.1 3 Norte 4 Noroeste 0 -- -- 36
2020-06-22 00:00:00 21.4 2 Noroeste 9 Noroeste 0 -- -- 32
2020-06-21 23:00:00 23 5 Noroeste 9 Noroeste 0 -- -- 29
2020-06-21 22:00:00 27.6 5 Norte 10 Norte 0 -- -- 24
2020-06-21 21:00:00 32.2 5 Norte 14 Norte 0 -- -- 20
2020-06-21 20:00:00 33.2 9 Norte 16 Sudoeste 0 -- -- 19
2020-06-21 19:00:00 34 6 Oeste 19 Noroeste 0 -- -- 19
2020-06-21 18:00:00 33.6 11 Sudoeste 24 Sudoeste 0 -- -- 19
2020-06-21 17:00:00 33.2 9 Oeste 26 Sudoeste 0 -- -- 20
2020-06-21 16:00:00 32.6 9 Sudoeste 21 Sudoeste 0 -- -- 22
2020-06-21 15:00:00 31.7 8 Oeste 26 Sudoeste 0 -- -- 22
2020-06-21 14:00:00 31.3 12 Sudoeste 23 Sur 0 -- -- 22
2020-06-21 13:00:00 30.6 12 Sudoeste 23 Sudoeste 0 -- -- 24
2020-06-21 12:00:00 29.5 8 Sudeste 14 Sur 0 -- -- 31
2020-06-21 11:00:00 26.5 3 Este 9 Sudeste 0 -- -- 33
2020-06-21 10:00:00 23.8 2 Este 7 Este 0 -- -- 38
2020-06-21 09:00:00 19.3 3 Sudeste 8 Noroeste 0 -- -- 49
2020-06-21 08:00:00 13.8 5 Norte 9 Norte 0 -- -- 61
2020-06-21 07:00:00 14 3 Norte 7 Noroeste 0 -- -- 57
2020-06-21 06:00:00 15.7 0 Calma 6 Nordeste 0 -- -- 50
2020-06-21 05:00:00 18.4 3 Sudeste 21 Noroeste 0 -- -- 45
2020-06-21 04:00:00 17.6 7 Norte 14 Noroeste 0 -- -- 46
2020-06-21 03:00:00 17 0 Calma 7 Norte 0 -- -- 44
2020-06-21 02:00:00 18.9 3 Norte 6 Norte 0 -- -- 38
2020-06-21 01:00:00 20.1 4 Norte 8 Noroeste 0 -- -- 35
2020-06-21 00:00:00 21.4 5 Norte 9 Norte 0 -- -- 31
2020-06-20 23:00:00 23.3 5 Norte 12 Norte 0 -- -- 29
2020-06-20 22:00:00 26 4 Noroeste 9 Oeste 0 -- -- 25
2020-06-20 21:00:00 29.9 6 Oeste 20 Sudoeste 0 -- -- 21
2020-06-20 20:00:00 31 9 Sudoeste 22 Oeste 0 -- -- 20
2020-06-20 19:00:00 32.2 11 Sudoeste 22 Sudoeste 0 -- -- 18
2020-06-20 18:00:00 32.3 14 Sudoeste 28 Oeste 0 -- -- 20
2020-06-20 17:00:00 32.2 17 Sudoeste 28 Sur 0 -- -- 22
2020-06-20 16:00:00 30.9 9 Oeste 27 Sudoeste 0 -- -- 23
2020-06-20 15:00:00 29.8 8 Sudoeste 27 Sudoeste 0 -- -- 25
2020-06-20 14:00:00 28.9 9 Sudoeste 29 Sudoeste 0 -- -- 24
2020-06-20 13:00:00 28 12 Oeste 27 Sudoeste 0 -- -- 27
2020-06-20 12:00:00 27.1 9 Sudoeste 20 Sur 0 -- -- 31
2020-06-20 11:00:00 24.4 6 Sur 13 Sur 0 -- -- 40
2020-06-20 10:00:00 22.2 8 Sur 14 Sur 0 -- -- 46
2020-06-20 09:00:00 17.8 6 Sudeste 11 Sudeste 0 -- -- 68
2020-06-20 08:00:00 12.4 0 Calma 8 Norte 0 -- -- 71
2020-06-20 07:00:00 11.5 2 Noroeste 6 Noroeste 0 -- -- 63
2020-06-20 06:00:00 12.5 3 Norte 6 Noroeste 0 -- -- 58
2020-06-20 05:00:00 14 0 Calma 3 Sudeste 0 -- -- 52
2020-06-20 04:00:00 14.4 2 Sudeste 6 Nordeste 0 -- -- 50
2020-06-20 03:00:00 16.3 3 Nordeste 9 Nordeste 0 -- -- 45
2020-06-20 02:00:00 18.3 3 Norte 9 Norte 0 -- -- 38
2020-06-20 01:00:00 19.5 5 Noroeste 12 Norte 0 -- -- 37
2020-06-20 00:00:00 20.7 6 Norte 12 Noroeste 0 -- -- 35
2020-06-19 23:00:00 22.6 5 Noroeste 11 Oeste 0 -- -- 32
2020-06-19 22:00:00 24.9 4 Oeste 13 Sudoeste 0 -- -- 30
2020-06-19 21:00:00 28 6 Oeste 15 Noroeste 0 -- -- 26
2020-06-19 20:00:00 29.3 7 Oeste 21 Sudoeste 0 -- -- 24
2020-06-19 19:00:00 30.3 11 Oeste 24 Sudoeste 0 -- -- 23
2020-06-19 18:00:00 29.7 9 Sudoeste 27 Sudoeste 0 -- -- 26
2020-06-19 17:00:00 29.4 13 Sur 24 Sudoeste 0 -- -- 28
2020-06-19 16:00:00 28.9 11 Sudoeste 27 Sudoeste 0 -- -- 30
2020-06-19 15:00:00 27.7 9 Oeste 26 Oeste 0 -- -- 31
2020-06-19 14:00:00 27.2 7 Sudoeste 27 Sudoeste 0 -- -- 32
2020-06-19 13:00:00 26.2 9 Sudoeste 24 Sudeste 0 -- -- 35
2020-06-19 12:00:00 24.5 10 Sudoeste 23 Sudoeste 0 -- -- 39
2020-06-19 11:00:00 23.1 9 Sur 23 Sudeste 0 -- -- 46
2020-06-19 10:00:00 20.8 14 Sudeste 25 Sudeste 0 -- -- 61
2020-06-19 09:00:00 18.5 15 Sudeste 26 Sudeste 0 -- -- 76
2020-06-19 08:00:00 16.6 9 Sudeste 21 Sudeste 0 -- -- 90
2020-06-19 07:00:00 15.8 6 Sur 13 Sudeste 0 -- -- 91
2020-06-19 06:00:00 16 6 Sudeste 19 Sudeste 0 -- -- 90
2020-06-19 05:00:00 16 5 Sur 12 Sudeste 0 -- -- 89
2020-06-19 04:00:00 16.2 4 Sudeste 9 Sudeste 0 -- -- 85
2020-06-19 03:00:00 17.2 0 Calma 8 Este 0 -- -- 81
2020-06-19 02:00:00 18.2 3 Este 12 Sudeste 0 -- -- 77
2020-06-19 01:00:00 19 0 Calma 13 Este 0 -- -- 71
2020-06-19 00:00:00 19.2 6 Este 15 Sudeste 0 -- -- 50
2020-06-18 23:00:00 21.9 4 Norte 17 Oeste 0 -- -- 40
2020-06-18 22:00:00 24.5 6 Noroeste 37 Noroeste 0 -- -- 27
2020-06-18 21:00:00 24.8 4 Sudoeste 15 Sudoeste 0 -- -- 33
2020-06-18 20:00:00 26.3 8 Sudoeste 18 Sur 0 -- -- 30
2020-06-18 19:00:00 28.4 13 Sur 24 Sudoeste 0 -- -- 27
2020-06-18 18:00:00 28.9 7 Sudoeste 22 Sudoeste 0 -- -- 26
2020-06-18 17:00:00 28.4 9 Oeste 25 Sudoeste 0 -- -- 27
2020-06-18 16:00:00 27.5 13 Sudoeste 27 Sur 0 -- -- 29
2020-06-18 15:00:00 26.9 7 Sur 28 Sudoeste 0 -- -- 32
2020-06-18 14:00:00 26 12 Sudoeste 26 Sur 0 -- -- 34
2020-06-18 13:00:00 24.4 9 Sudoeste 21 Sur 0 -- -- 37
2020-06-18 12:00:00 23.1 4 Sudoeste 18 Sudoeste 0 -- -- 40
2020-06-18 11:00:00 21.8 7 Sur 15 Sur 0 -- -- 47
2020-06-18 10:00:00 19.5 8 Sudeste 15 Sur 0 -- -- 57
2020-06-18 09:00:00 16.2 6 Sudeste 10 Sudeste 0 -- -- 78
2020-06-18 08:00:00 12.1 2 Sudeste 4 Noroeste 0 -- -- 90
2020-06-18 07:00:00 11.7 0 Calma 3 Norte 0 -- -- 79
2020-06-18 06:00:00 12.6 0 Calma 2 Noroeste 0 -- -- 79
2020-06-18 05:00:00 13.8 0 Calma 2 Oeste 0 -- -- 76
2020-06-18 04:00:00 14.3 0 Calma 3 Sur 0 -- -- 71
2020-06-18 03:00:00 14.9 3 Sudeste 14 Sudeste 0 -- -- 69
2020-06-18 02:00:00 15.4 5 Este 10 Este 0 -- -- 56
2020-06-18 01:00:00 16.8 3 Norte 6 Noroeste 0 -- -- 49
2020-06-18 00:00:00 18.2 2 Noroeste 6 Sudeste 0 -- -- 47
2020-06-17 23:00:00 19.2 0 Calma 6 Norte 0 -- -- 45
2020-06-17 22:00:00 21.6 2 Noroeste 8 Oeste 0 -- -- 37
2020-06-17 21:00:00 24.1 5 Noroeste 16 Noroeste 0 -- -- 32
2020-06-17 20:00:00 25.4 8 Noroeste 25 Sudoeste 0 -- -- 30
2020-06-17 19:00:00 25.6 6 Oeste 22 Sur 0 -- -- 30
2020-06-17 18:00:00 26.1 9 Sudoeste 27 Sudoeste 0 -- -- 29
2020-06-17 17:00:00 25.2 9 Noroeste 30 Noroeste 0 -- -- 30
2020-06-17 16:00:00 25 10 Sudoeste 28 Sudoeste 0 -- -- 32
2020-06-17 15:00:00 23.9 12 Sudoeste 29 Sudoeste 0 -- -- 34
2020-06-17 14:00:00 22.9 15 Sudoeste 27 Sudoeste 0 -- -- 38
2020-06-17 13:00:00 23.2 17 Sur 29 Sur 0 -- -- 40
2020-06-17 12:00:00 21.2 4 Oeste 17 Sudoeste 0 -- -- 42
2020-06-17 11:00:00 19.9 8 Sudoeste 15 Sur 0 -- -- 46
2020-06-17 10:00:00 18.3 3 Sur 9 Sudeste 0 -- -- 55
2020-06-17 09:00:00 14.3 2 Sudeste 5 Sudeste 0 -- -- 73
2020-06-17 08:00:00 9.9 3 Sudeste 5 Sudeste 0 -- -- 85
2020-06-17 07:00:00 9.5 0 Calma 7 Norte 0 -- -- 82
2020-06-17 06:00:00 10.5 0 Calma 5 Nordeste 0 -- -- 76
2020-06-17 05:00:00 11.1 3 Sudoeste 6 Sudoeste 0 -- -- 78
2020-06-17 04:00:00 12.1 3 Este 7 Este 0 -- -- 75
2020-06-17 03:00:00 13.2 2 Este 6 Norte 0 -- -- 70
2020-06-17 02:00:00 14.9 3 Norte 8 Norte 0 -- -- 66
2020-06-17 01:00:00 15.6 4 Noroeste 7 Noroeste 0 -- -- 66
2020-06-17 00:00:00 16.5 3 Noroeste 18 Noroeste 0 -- -- 61
2020-06-16 23:00:00 17.6 8 Noroeste 18 Noroeste 0 -- -- 55
2020-06-16 22:00:00 19.6 10 Noroeste 36 Noroeste 0 -- -- 49
2020-06-16 21:00:00 23.2 12 Noroeste 27 Noroeste 0 -- -- 36
2020-06-16 20:00:00 24.7 11 Oeste 28 Noroeste 0 -- -- 32
2020-06-16 19:00:00 24.8 11 Noroeste 31 Noroeste 0 -- -- 31
2020-06-16 18:00:00 25.7 7 Sudoeste 32 Noroeste 0 -- -- 32
2020-06-16 17:00:00 24.9 14 Noroeste 33 Noroeste 0 -- -- 34
2020-06-16 16:00:00 25.3 14 Oeste 31 Oeste 0 -- -- 34
2020-06-16 15:00:00 24.1 13 Oeste 30 Sudoeste 0 -- -- 38
2020-06-16 14:00:00 23.4 11 Oeste 35 Oeste 0 -- -- 39
2020-06-16 13:00:00 22.8 14 Oeste 31 Sudoeste 0 -- -- 38
2020-06-16 12:00:00 22 9 Oeste 24 Oeste 0 -- -- 44
2020-06-16 11:00:00 21.2 9 Oeste 21 Oeste 0 -- -- 47
2020-06-16 10:00:00 20.1 6 Oeste 19 Sudoeste 0 -- -- 52
2020-06-16 09:00:00 16.4 0 Calma 5 Norte 0 -- -- 62
2020-06-16 08:00:00 12.6 3 Nordeste 6 Nordeste 0 -- -- 70
2020-06-16 07:00:00 11.4 2 Este 5 Este 0 -- -- 68
2020-06-16 06:00:00 13 2 Nordeste 5 Este 0 -- -- 63
2020-06-16 05:00:00 14.8 3 Nordeste 11 Norte 0 -- -- 57
2020-06-16 04:00:00 16.3 2 Norte 13 Noroeste 0 -- -- 52
2020-06-16 03:00:00 17.8 6 Noroeste 14 Noroeste 0 -- -- 45
2020-06-16 02:00:00 18.3 7 Noroeste 13 Noroeste 0 -- -- 37
2020-06-16 01:00:00 19.5 7 Noroeste 16 Oeste 0 -- -- 31
2020-06-16 00:00:00 19.5 4 Oeste 17 Oeste 0 -- -- 29
2020-06-15 23:00:00 20.6 5 Noroeste 14 Oeste 0 -- -- 29
2020-06-15 22:00:00 22 5 Sudoeste 16 Oeste 0 -- -- 28
2020-06-15 21:00:00 24.8 8 Oeste 20 Sudoeste 0 -- -- 26
2020-06-15 20:00:00 26.8 8 Oeste 23 Noroeste 0 -- -- 24
2020-06-15 19:00:00 27.5 10 Oeste 37 Sudoeste 0 -- -- 24
2020-06-15 18:00:00 27.8 9 Oeste 35 Sudoeste 0 -- -- 24
2020-06-15 17:00:00 27.5 11 Sudoeste 28 Sudoeste 0 -- -- 24
2020-06-15 16:00:00 26.9 11 Sudoeste 32 Sudoeste 0 -- -- 23
2020-06-15 15:00:00 25.6 12 Sudoeste 26 Sudoeste 0 -- -- 25
2020-06-15 14:00:00 25.2 10 Sudoeste 32 Sur 0 -- -- 29
2020-06-15 13:00:00 23.8 12 Sudoeste 32 Noroeste 0 -- -- 36
2020-06-15 12:00:00 22.3 17 Sudoeste 35 Sur 0 -- -- 40
2020-06-15 11:00:00 20.8 6 Sudoeste 17 Sudoeste 0 -- -- 46
2020-06-15 10:00:00 18.7 5 Sur 13 Sudoeste 0 -- -- 52
2020-06-15 09:00:00 14.2 5 Sudeste 9 Sur 0 -- -- 62
2020-06-15 08:00:00 9.7 0 Calma 4 Sudeste 0 -- -- 79
2020-06-15 07:00:00 9.8 0 Calma 3 Noroeste 0 -- -- 73
2020-06-15 06:00:00 10.8 0 Calma 5 Noroeste 0 -- -- 70
2020-06-15 05:00:00 11.8 2 Este 12 Este 0 -- -- 66
2020-06-15 04:00:00 12.8 2 Nordeste 7 Norte 0 -- -- 63
2020-06-15 03:00:00 13.6 0 Calma 8 Norte 0 -- -- 59
2020-06-15 02:00:00 14.6 5 Noroeste 8 Norte 0 -- -- 55
2020-06-15 01:00:00 15 0 Calma 6 Norte 0 -- -- 55
2020-06-15 00:00:00 16.7 0 Calma 5 Norte 0 -- -- 50
2020-06-14 23:00:00 18.3 3 Norte 8 Noroeste 0 -- -- 44
2020-06-14 22:00:00 21 4 Noroeste 14 Noroeste 0 -- -- 39
2020-06-14 21:00:00 24.2 5 Noroeste 16 Noroeste 0 -- -- 34
2020-06-14 20:00:00 25.4 9 Noroeste 26 Sudoeste 0 -- -- 31
2020-06-14 19:00:00 26.2 10 Sudoeste 32 Sudoeste 0 -- -- 30
2020-06-14 18:00:00 26.2 10 Sudoeste 27 Sudoeste 0 -- -- 30
2020-06-14 17:00:00 25.5 7 Oeste 29 Sudoeste 0 -- -- 30
2020-06-14 16:00:00 24.8 12 Sudoeste 30 Oeste 0 -- -- 33
2020-06-14 15:00:00 24 14 Sudoeste 28 Sudoeste 0 -- -- 36
2020-06-14 14:00:00 22.7 10 Oeste 32 Sudoeste 0 -- -- 37
2020-06-14 13:00:00 22 11 Sudoeste 30 Sudoeste 0 -- -- 39
2020-06-14 12:00:00 20.7 8 Oeste 20 Sudoeste 0 -- -- 42
2020-06-14 11:00:00 19.7 7 Oeste 15 Sudoeste 0 -- -- 46
2020-06-14 10:00:00 17.6 3 Sudoeste 8 Sudoeste 0 -- -- 54
2020-06-14 09:00:00 14.8 0 Calma 6 Sudeste 0 -- -- 61
2020-06-14 08:00:00 10.9 0 Calma 2 Este 0 -- -- 78
2020-06-14 07:00:00 10.4 0 Calma 3 Sudeste 0 -- -- 77
2020-06-14 06:00:00 11.1 0 Calma 6 Norte 0 -- -- 72
2020-06-14 05:00:00 11 2 Norte 7 Norte 0 -- -- 68
2020-06-14 04:00:00 11.1 4 Noroeste 9 Norte 0 -- -- 66
2020-06-14 03:00:00 12 4 Noroeste 8 Norte 0 -- -- 63
2020-06-14 02:00:00 13.5 4 Norte 7 Norte 0 -- -- 57
2020-06-14 01:00:00 13.6 0 Calma 6 Norte 0 -- -- 57
2020-06-14 00:00:00 15.3 4 Norte 11 Noroeste 0 -- -- 52
2020-06-13 23:00:00 17.1 3 Noroeste 7 Noroeste 0 -- -- 47
2020-06-13 22:00:00 19.3 4 Noroeste 15 Oeste 0 -- -- 41
2020-06-13 21:00:00 21.7 4 Noroeste 16 Oeste 0 -- -- 36
2020-06-13 20:00:00 21.8 5 Oeste 18 Oeste 0 -- -- 36
2020-06-13 19:00:00 23.6 8 Sudoeste 26 Noroeste 0 -- -- 34
2020-06-13 18:00:00 22.7 8 Sudoeste 24 Noroeste 0 -- -- 35
2020-06-13 17:00:00 22.6 9 Oeste 22 Sudoeste 0 -- -- 35
2020-06-13 16:00:00 21.5 10 Sudoeste 27 Sur 0 -- -- 38
2020-06-13 15:00:00 21 12 Sudoeste 24 Sudoeste 0 -- -- 41
2020-06-13 14:00:00 19.3 9 Oeste 24 Noroeste 0 -- -- 45
2020-06-13 13:00:00 18.2 9 Oeste 25 Noroeste 0 -- -- 49
2020-06-13 12:00:00 16.6 8 Noroeste 25 Noroeste 0 -- -- 54
2020-06-13 11:00:00 15 10 Oeste 23 Oeste 0 -- -- 60
2020-06-13 10:00:00 14.1 9 Noroeste 24 Noroeste 0 -- -- 64
2020-06-13 09:00:00 12.3 10 Noroeste 19 Noroeste 0 -- -- 70
2020-06-13 08:00:00 8.7 0 Calma 8 Oeste 0 -- -- 84
2020-06-13 07:00:00 8.8 2 Noroeste 8 Noroeste 0 -- -- 83
2020-06-13 06:00:00 9.1 4 Oeste 9 Oeste 0 -- -- 82
2020-06-13 05:00:00 9.7 4 Oeste 9 Oeste 0 -- -- 78
2020-06-13 04:00:00 11.1 5 Noroeste 22 Noroeste 0 -- -- 73
2020-06-13 03:00:00 11.5 4 Noroeste 11 Oeste 0 -- -- 74
2020-06-13 02:00:00 11.7 5 Noroeste 21 Noroeste 0 -- -- 74
2020-06-13 01:00:00 12.4 14 Noroeste 33 Noroeste 0 -- -- 70
2020-06-13 00:00:00 14.3 23 Noroeste 38 Noroeste 0 -- -- 63
2020-06-12 23:00:00 15.1 6 Sudoeste 17 Sudoeste 0 -- -- 51
2020-06-12 22:00:00 16.7 12 Sudoeste 23 Sudoeste 0 -- -- 46
2020-06-12 21:00:00 17.6 14 Sudoeste 32 Sudoeste 0 -- -- 42
2020-06-12 20:00:00 18 18 Sudoeste 30 Sudoeste 0 -- -- 41
2020-06-12 19:00:00 20 15 Sudoeste 41 Sudoeste 0 -- -- 37
2020-06-12 18:00:00 20.3 14 Sudoeste 39 Sudoeste 0 -- -- 36
2020-06-12 17:00:00 19.5 19 Sudoeste 37 Sudoeste 0 -- -- 39
2020-06-12 16:00:00 18.8 19 Sudoeste 35 Sudoeste 0 -- -- 41
2020-06-12 15:00:00 18.5 11 Oeste 56 Sudoeste 0 -- -- 43
2020-06-12 14:00:00 18.4 16 Sudoeste 32 Sudoeste 0 -- -- 44
2020-06-12 13:00:00 17 15 Sudoeste 27 Sudoeste 0 -- -- 46
2020-06-12 12:00:00 15.6 14 Sudoeste 32 Sudoeste 0 -- -- 48
2020-06-12 11:00:00 13.9 12 Sudoeste 30 Sudoeste 0 -- -- 53
2020-06-12 10:00:00 12.7 10 Oeste 26 Oeste 0 -- -- 57
2020-06-12 09:00:00 11.4 10 Sudoeste 29 Sudoeste 0 -- -- 62
2020-06-12 08:00:00 10.1 11 Sudoeste 21 Sudoeste 0 -- -- 68
2020-06-12 07:00:00 10 5 Sudoeste 19 Sudoeste 0 -- -- 69
2020-06-12 06:00:00 10.9 2 Oeste 10 Noroeste 0 -- -- 72
2020-06-12 05:00:00 12.2 5 Noroeste 26 Sudoeste 0 -- -- 66
2020-06-12 04:00:00 13.2 12 Oeste 32 Sudoeste 0 -- -- 61
2020-06-12 03:00:00 13.9 13 Oeste 34 Sudoeste 0 -- -- 59
2020-06-12 02:00:00 15.3 10 Oeste 31 Sudoeste 0 -- -- 60
2020-06-12 01:00:00 16.2 15 Sudoeste 35 Sudoeste 0 -- -- 64
2020-06-12 00:00:00 16.8 14 Sudoeste 32 Oeste 0 -- -- 56
2020-06-11 23:00:00 17.8 19 Sudoeste 33 Oeste 0 -- -- 52
2020-06-11 22:00:00 19 23 Sudoeste 40 Sudoeste 0 -- -- 50
2020-06-11 21:00:00 20.6 17 Sudoeste 39 Sudoeste 0 -- -- 46
2020-06-11 20:00:00 22.2 21 Sudoeste 39 Sudoeste 0 -- -- 38
2020-06-11 19:00:00 23.4 17 Sudoeste 42 Sudoeste 0 -- -- 37
2020-06-11 18:00:00 24.2 17 Sudoeste 41 Sudoeste 0 -- -- 34
2020-06-11 17:00:00 25.5 17 Sudoeste 40 Sudoeste 0 -- -- 33
2020-06-11 16:00:00 24.3 18 Sudoeste 42 Sudoeste 0 -- -- 35
2020-06-11 15:00:00 24.4 24 Sudoeste 42 Sudoeste 0 -- -- 34
2020-06-11 14:00:00 23.3 17 Sudoeste 40 Sur 0 -- -- 31
2020-06-11 13:00:00 22.2 22 Sudoeste 41 Sur 0 -- -- 32
2020-06-11 12:00:00 20.8 21 Sudoeste 37 Sudoeste 0 -- -- 34
2020-06-11 11:00:00 19 24 Sudoeste 39 Sur 0 -- -- 46
2020-06-11 10:00:00 17.6 19 Sudoeste 33 Sudoeste 0 -- -- 51
2020-06-11 09:00:00 15.4 18 Sur 29 Sur 0 -- -- 62
2020-06-11 08:00:00 11.5 8 Sur 12 Sur 0 -- -- 72
2020-06-11 07:00:00 13.4 8 Sudoeste 15 Sudoeste 0 -- -- 55
2020-06-11 06:00:00 12.2 6 Oeste 15 Oeste 0 -- -- 59
2020-06-11 05:00:00 11.3 0 Calma 4 Este 0 -- -- 74
2020-06-11 04:00:00 11.9 2 Norte 6 Sudeste 0 -- -- 73
2020-06-11 03:00:00 12 3 Este 5 Sudeste 0 -- -- 76
2020-06-11 02:00:00 13.3 0 Calma 5 Norte 0 -- -- 70
2020-06-11 01:00:00 14.4 2 Norte 6 Noroeste 0 -- -- 65
2020-06-11 00:00:00 16.5 2 Norte 6 Norte 0 -- -- 64